Time;durP1;ratioP1;P1;durP2;ratioP2;P2;SDS_P1;SDS_P2;PMS_P1;PMS_P2;Temp;Humidity;BMP_temperature;BMP_pressure;BME280_temperature;BME280_humidity;BME280_pressure;Samples;Min_cycle;Max_cycle;Signal;HPM_P1;HPM_P2
2021/01/27 00:00:27;;;;;;;47.70;24.20;;;2.70;81.20;;;;;;5058937;28;20032;-79
2021/01/27 00:02:54;;;;;;;49.15;22.52;;;2.80;81.20;;;;;;5058901;28;20394;-79
2021/01/27 00:05:32;;;;;;;48.55;24.02;;;2.70;81.10;;;;;;5076458;28;20048;-78
2021/01/27 00:07:58;;;;;;;50.45;24.67;;;2.70;81.10;;;;;;5058726;28;20540;-78
2021/01/27 00:10:25;;;;;;;56.10;25.60;;;2.70;81.00;;;;;;5059435;28;20028;-78
2021/01/27 00:12:51;;;;;;;52.08;24.45;;;2.80;81.00;;;;;;5076786;28;20102;-79
2021/01/27 00:15:20;;;;;;;53.45;25.88;;;2.70;80.70;;;;;;5076645;28;20433;-79
2021/01/27 00:17:46;;;;;;;51.15;24.42;;;2.70;80.90;;;;;;5076268;28;20028;-80
2021/01/27 00:20:15;;;;;;;48.47;23.08;;;2.70;80.90;;;;;;5076368;28;20017;-79
2021/01/27 00:22:41;;;;;;;43.25;21.17;;;2.70;80.80;;;;;;5058706;28;20086;-79
2021/01/27 00:25:08;;;;;;;35.40;19.88;;;2.70;80.80;;;;;;5058185;28;20024;-79
2021/01/27 00:27:34;;;;;;;36.78;18.42;;;2.70;80.80;;;;;;5076169;28;20066;-79
2021/01/27 00:30:00;;;;;;;37.53;19.02;;;2.70;80.80;;;;;;5075901;28;20017;-79
2021/01/27 00:32:28;;;;;;;38.92;20.50;;;2.60;80.60;;;;;;5075853;28;20076;-79
2021/01/27 00:34:54;;;;;;;38.25;20.33;;;2.60;80.50;;;;;;5075999;28;20378;-79
2021/01/27 00:37:21;;;;;;;38.38;19.38;;;2.60;80.50;;;;;;5076246;28;20025;-80
2021/01/27 00:39:47;;;;;;;36.97;20.70;;;2.60;80.50;;;;;;5076078;28;20051;-79
2021/01/27 00:42:13;;;;;;;37.78;20.60;;;2.50;80.50;;;;;;5075964;28;20463;-79
2021/01/27 00:44:38;;;;;;;41.28;22.13;;;2.50;80.60;;;;;;5075838;28;20036;-79
2021/01/27 00:47:04;;;;;;;40.80;19.90;;;2.50;80.60;;;;;;5085028;28;20040;-79
2021/01/27 00:49:30;;;;;;;38.38;20.17;;;2.40;80.40;;;;;;5096625;28;20389;-79
2021/01/27 00:51:55;;;;;;;35.08;19.73;;;2.40;80.50;;;;;;5095778;28;20081;-79
2021/01/27 00:54:21;;;;;;;39.17;21.42;;;2.30;80.90;;;;;;5077602;28;20028;-79
2021/01/27 00:56:47;;;;;;;34.08;20.35;;;2.30;80.90;;;;;;5093763;28;20490;-79
2021/01/27 00:59:13;;;;;;;36.58;19.13;;;2.20;80.80;;;;;;5095496;28;20024;-79
2021/01/27 01:01:38;;;;;;;37.05;20.15;;;2.30;81.20;;;;;;5077312;28;20111;-79
2021/01/27 01:04:05;;;;;;;41.40;22.50;;;2.30;81.20;;;;;;5076569;28;20083;-79
2021/01/27 01:06:31;;;;;;;43.53;22.50;;;2.20;80.90;;;;;;5096163;28;20374;-79
2021/01/27 01:08:56;;;;;;;42.33;21.85;;;2.20;80.80;;;;;;5077509;28;20028;-79
2021/01/27 01:11:22;;;;;;;35.90;21.67;;;2.20;80.90;;;;;;5077558;28;20497;-79
2021/01/27 01:13:48;;;;;;;41.08;22.05;;;2.20;80.90;;;;;;5095199;28;20024;-78
2021/01/27 01:16:14;;;;;;;44.13;23.77;;;2.10;80.90;;;;;;5095629;28;20028;-79
2021/01/27 01:18:39;;;;;;;47.22;25.25;;;2.10;81.10;;;;;;5095911;28;20035;-78
2021/01/27 01:21:05;;;;;;;54.10;27.27;;;2.00;81.20;;;;;;5078069;28;20020;-79
2021/01/27 01:23:31;;;;;;;58.15;26.80;;;2.00;81.40;;;;;;5095660;28;20024;-79
2021/01/27 01:25:57;;;;;;;50.47;26.92;;;2.00;81.30;;;;;;5076949;28;20020;-79
2021/01/27 01:28:24;;;;;;;53.08;27.90;;;2.00;81.30;;;;;;5077374;28;20028;-79
2021/01/27 01:30:49;;;;;;;50.72;25.30;;;1.90;81.30;;;;;;5095135;28;20103;-79
2021/01/27 01:33:22;;;;;;;50.10;24.27;;;1.90;81.40;;;;;;5077492;28;20056;-79
2021/01/27 01:35:49;;;;;;;56.05;27.95;;;1.80;81.50;;;;;;5069656;28;20123;-79
2021/01/27 01:38:15;;;;;;;51.05;25.50;;;1.80;81.60;;;;;;5095181;28;20065;-79
2021/01/27 01:40:44;;;;;;;55.88;28.38;;;1.80;81.50;;;;;;5087004;28;20053;-79
2021/01/27 01:43:16;;;;;;;56.38;28.88;;;1.70;81.60;;;;;;5076633;28;20493;-79
2021/01/27 01:45:45;;;;;;;67.38;34.30;;;1.70;81.90;;;;;;5087426;28;20077;-79
2021/01/27 01:48:19;;;;;;;69.30;35.05;;;1.70;82.00;;;;;;5094917;28;20048;-79
2021/01/27 01:50:49;;;;;;;68.70;36.45;;;1.70;82.10;;;;;;5077265;28;20470;-79
2021/01/27 01:53:14;;;;;;;63.83;33.08;;;1.70;82.50;;;;;;5094711;28;20031;-79
2021/01/27 01:55:41;;;;;;;54.97;29.63;;;1.80;82.60;;;;;;5076459;28;20033;-79
2021/01/27 01:58:09;;;;;;;54.97;28.45;;;1.80;82.70;;;;;;5094499;28;20029;-79
2021/01/27 02:00:38;;;;;;;53.55;28.40;;;1.80;82.80;;;;;;5076742;28;20022;-79
2021/01/27 02:03:07;;;;;;;56.47;29.35;;;1.80;82.80;;;;;;5094439;28;20025;-78
2021/01/27 02:05:33;;;;;;;55.72;29.65;;;1.80;82.90;;;;;;5094767;28;20100;-79
2021/01/27 02:07:58;;;;;;;50.58;27.15;;;1.90;83.00;;;;;;5076407;28;20020;-78
2021/01/27 02:10:25;;;;;;;50.78;27.98;;;1.90;83.00;;;;;;5094253;28;20065;-79
2021/01/27 02:12:56;;;;;;;52.38;27.15;;;1.90;83.10;;;;;;5094640;28;20093;-79
2021/01/27 02:15:51;;;;;;;62.35;31.67;;;1.90;83.00;;;;;;5094086;28;20028;-79
2021/01/27 02:18:34;;;;;;;58.70;31.25;;;1.90;83.00;;;;;;5094724;28;20359;-79
2021/01/27 02:21:03;;;;;;;61.08;32.20;;;2.00;83.00;;;;;;5094514;28;20054;-79
2021/01/27 02:23:59;;;;;;;52.80;28.23;;;2.00;83.00;;;;;;5076297;28;20043;-79
2021/01/27 02:26:52;;;;;;;55.83;27.42;;;2.00;83.10;;;;;;5076248;28;20081;-79
2021/01/27 02:29:46;;;;;;;57.65;28.35;;;2.10;83.20;;;;;;5094641;28;20023;-79
2021/01/27 02:32:52;;;;;;;47.75;25.42;;;2.10;83.20;;;;;;5093916;28;20111;-79
2021/01/27 02:36:18;;;;;;;36.77;20.20;;;2.10;83.10;;;;;;5094248;28;20028;-79
2021/01/27 02:38:56;;;;;;;50.42;25.58;;;2.10;83.20;;;;;;5015247;28;20351;-77
2021/01/27 02:41:34;;;;;;;49.03;25.58;;;2.10;82.80;;;;;;5015625;28;20087;-77
2021/01/27 02:44:04;;;;;;;49.03;24.40;;;2.10;82.80;;;;;;5079909;28;20063;-79
2021/01/27 02:46:51;;;;;;;49.10;25.35;;;2.10;82.80;;;;;;5076102;28;20070;-79
2021/01/27 02:49:19;;;;;;;40.03;20.25;;;2.10;82.80;;;;;;5093755;28;20020;-78
2021/01/27 02:52:00;;;;;;;37.75;20.42;;;2.10;83.00;;;;;;5093975;28;20016;-77
2021/01/27 02:54:47;;;;;;;39.35;22.58;;;2.10;82.90;;;;;;5075788;28;20389;-79
2021/01/27 02:57:34;;;;;;;37.97;19.60;;;2.10;82.80;;;;;;5093725;28;20081;-79
2021/01/27 03:00:06;;;;;;;76.80;33.33;;;2.10;83.10;;;;;;5093540;28;20021;-78
2021/01/27 03:02:47;;;;;;;72.40;34.80;;;2.10;83.00;;;;;;5093559;28;20024;-76
2021/01/27 03:05:38;;;;;;;69.50;33.35;;;2.10;82.80;;;;;;5093751;28;20032;-78
2021/01/27 03:08:09;;;;;;;84.15;36.28;;;2.10;82.80;;;;;;5075284;28;20039;-78
2021/01/27 03:10:56;;;;;;;87.45;39.30;;;2.10;82.70;;;;;;5058408;28;20040;-76
2021/01/27 03:13:22;;;;;;;91.93;43.08;;;2.10;82.90;;;;;;5089090;28;20048;-78
2021/01/27 03:15:47;;;;;;;94.05;48.65;;;2.10;82.80;;;;;;5093574;28;20090;-80
2021/01/27 03:18:21;;;;;;;90.50;44.08;;;2.10;82.80;;;;;;5075289;28;20427;-79
2021/01/27 03:20:51;;;;;;;68.25;37.72;;;2.10;82.90;;;;;;5075114;28;20024;-79
2021/01/27 03:23:32;;;;;;;72.70;38.40;;;2.10;82.80;;;;;;5086534;28;20020;-79
2021/01/27 03:26:04;;;;;;;44.72;25.75;;;2.00;82.60;;;;;;5074413;28;20036;-79
2021/01/27 03:28:40;;;;;;;47.20;24.80;;;2.00;82.80;;;;;;5075195;28;20035;-73
2021/01/27 03:31:06;;;;;;;;;;;2.00;82.90;;;;;;5093729;28;20024;-79
2021/01/27 03:33:48;;;;;;;54.40;28.13;;;1.90;83.00;;;;;;5093366;28;20406;-79
2021/01/27 03:36:15;;;;;;;52.33;27.35;;;1.90;83.10;;;;;;5093204;28;20033;-80
2021/01/27 03:38:49;;;;;;;57.20;31.92;;;1.90;83.30;;;;;;5075369;28;20378;-80
2021/01/27 03:41:20;;;;;;;57.17;32.55;;;1.90;83.40;;;;;;5075096;28;20378;-79
2021/01/27 03:44:01;;;;;;;57.05;31.95;;;1.90;83.40;;;;;;5093350;28;20028;-77
2021/01/27 03:46:50;;;;;;;62.17;32.42;;;1.90;83.70;;;;;;5063056;28;20363;-79
2021/01/27 03:49:44;;;;;;;62.50;32.58;;;1.90;83.70;;;;;;5075020;28;20073;-78
2021/01/27 03:52:23;;;;;;;66.13;32.42;;;2.00;83.80;;;;;;5093048;28;20512;-81
2021/01/27 03:55:02;;;;;;;60.90;32.53;;;2.00;83.90;;;;;;5079630;28;20028;-79
2021/01/27 03:57:34;;;;;;;61.28;33.70;;;2.00;83.80;;;;;;5093061;28;20098;-79
2021/01/27 04:00:00;;;;;;;61.85;34.42;;;2.00;83.90;;;;;;5093286;28;20026;-80
2021/01/27 04:02:25;;;;;;;67.43;33.17;;;2.00;83.80;;;;;;5092868;28;20095;-79
2021/01/27 04:04:51;;;;;;;69.35;35.42;;;2.00;83.90;;;;;;5092814;28;20111;-80
2021/01/27 04:07:17;;;;;;;60.78;34.03;;;2.00;83.90;;;;;;5093099;28;20506;-80
2021/01/27 04:09:44;;;;;;;60.85;33.85;;;2.10;84.10;;;;;;5074803;28;20089;-80
2021/01/27 04:12:09;;;;;;;69.80;34.25;;;2.10;84.10;;;;;;5092605;28;20016;-80
2021/01/27 04:14:35;;;;;;;63.88;33.78;;;2.10;83.90;;;;;;5092717;28;20049;-80
2021/01/27 04:17:13;;;;;;;69.53;34.75;;;2.10;84.00;;;;;;5074514;28;20055;-80
2021/01/27 04:19:38;;;;;;;51.13;25.73;;;2.10;84.00;;;;;;5074903;28;20024;-80
2021/01/27 04:22:04;;;;;;;48.65;24.50;;;2.10;83.90;;;;;;5074421;28;20020;-80
2021/01/27 04:24:30;;;;;;;49.33;26.02;;;2.10;83.80;;;;;;5074646;28;20416;-79
2021/01/27 04:26:55;;;;;;;46.00;21.80;;;2.10;83.90;;;;;;5074289;28;20370;-79
2021/01/27 04:29:21;;;;;;;41.50;20.50;;;2.10;83.80;;;;;;5075708;28;20020;-88
2021/01/27 04:31:47;;;;;;;34.55;17.77;;;2.10;83.80;;;;;;5075529;28;20020;-86
2021/01/27 04:34:12;;;;;;;35.08;18.58;;;2.10;83.70;;;;;;5092294;28;20082;-88
2021/01/27 04:36:38;;;;;;;39.00;19.88;;;2.10;83.60;;;;;;5075660;28;20028;-88
2021/01/27 04:39:04;;;;;;;32.60;17.00;;;2.20;83.50;;;;;;5078360;28;20462;-84
2021/01/27 04:41:30;;;;;;;27.17;13.98;;;2.20;83.30;;;;;;5096394;28;20020;-86
2021/01/27 04:43:55;;;;;;;23.30;12.32;;;2.20;83.20;;;;;;5096348;28;20077;-87
2021/01/27 04:46:23;;;;;;;21.85;11.63;;;2.20;83.20;;;;;;5096181;28;20477;-88
2021/01/27 04:48:51;;;;;;;25.23;13.50;;;2.20;83.10;;;;;;5078507;28;20028;-87
2021/01/27 04:51:26;;;;;;;21.60;11.75;;;2.30;83.10;;;;;;5096029;28;20054;-88
2021/01/27 04:54:41;;;;;;;21.92;12.07;;;2.30;82.70;;;;;;5077997;28;20463;-87
2021/01/27 04:57:15;;;;;;;21.73;11.70;;;2.30;82.60;;;;;;5087484;28;20528;-88
2021/01/27 04:59:47;;;;;;;21.00;11.43;;;2.30;82.60;;;;;;5077872;28;20020;-87
2021/01/27 05:02:41;;;;;;;23.20;12.98;;;2.30;82.40;;;;;;5096259;28;20492;-87
2021/01/27 05:05:18;;;;;;;21.92;12.52;;;2.40;82.20;;;;;;5096329;28;20027;-88
2021/01/27 05:07:44;;;;;;;24.63;13.13;;;2.30;82.00;;;;;;5078443;28;20032;-87
2021/01/27 05:10:15;;;;;;;20.58;11.82;;;2.30;82.70;;;;;;5098709;28;20097;-87
2021/01/27 05:13:14;;;;;;;22.20;12.10;;;2.30;82.00;;;;;;5109758;28;20024;-88
2021/01/27 05:15:39;;;;;;;20.77;11.50;;;2.30;81.80;;;;;;5076493;28;20036;-88
2021/01/27 05:18:05;;;;;;;20.63;11.73;;;2.30;81.70;;;;;;5069792;28;20022;-88
2021/01/27 05:20:31;;;;;;;24.35;12.57;;;2.30;81.70;;;;;;5077666;28;20105;-88
2021/01/27 05:22:57;;;;;;;21.55;11.68;;;2.20;81.50;;;;;;5077609;28;20496;-88
2021/01/27 05:25:36;;;;;;;19.88;11.02;;;2.30;81.40;;;;;;5095514;28;20024;-88
2021/01/27 05:28:04;;;;;;;23.40;12.85;;;2.20;81.40;;;;;;5077418;28;20046;-86
2021/01/27 05:30:34;;;;;;;22.33;11.50;;;2.20;81.40;;;;;;5077522;28;20040;-88
2021/01/27 05:33:01;;;;;;;21.23;11.50;;;2.20;81.30;;;;;;5096679;28;20025;-88
2021/01/27 05:35:29;;;;;;;19.50;11.90;;;2.20;81.30;;;;;;5096374;28;20032;-90
2021/01/27 05:37:57;;;;;;;22.58;12.32;;;2.20;81.30;;;;;;5079830;28;20026;-89
2021/01/27 05:40:35;;;;;;;20.52;11.45;;;2.20;81.20;;;;;;5078444;28;20441;-87
2021/01/27 05:43:22;;;;;;;26.02;12.18;;;2.20;81.10;;;;;;5097590;28;20044;-90
2021/01/27 05:45:49;;;;;;;21.95;11.93;;;2.20;81.20;;;;;;5083737;28;20088;-88
2021/01/27 05:48:22;;;;;;;21.40;11.05;;;2.20;81.00;;;;;;5080954;28;20131;-88
2021/01/27 05:50:48;;;;;;;20.13;11.48;;;2.20;81.00;;;;;;5093828;28;20427;-82
2021/01/27 05:53:23;;;;;;;22.52;12.40;;;2.20;80.90;;;;;;5077372;28;20452;-87
2021/01/27 05:56:18;;;;;;;22.70;12.18;;;2.20;80.80;;;;;;5059592;28;20086;-88
2021/01/27 05:59:01;;;;;;;25.10;12.93;;;2.20;80.60;;;;;;5065825;28;20488;-88
2021/01/27 06:01:31;;;;;;;22.08;11.75;;;2.20;80.80;;;;;;5086230;28;20129;-89
2021/01/27 06:04:12;;;;;;;24.27;12.15;;;2.20;80.70;;;;;;5089352;28;20065;-87
2021/01/27 06:06:46;;;;;;;24.27;12.63;;;2.20;80.70;;;;;;5083517;28;20540;-87
2021/01/27 06:09:12;;;;;;;22.92;12.02;;;2.20;80.70;;;;;;5088462;28;20032;-88
2021/01/27 06:11:39;;;;;;;26.48;12.43;;;2.30;80.80;;;;;;5084897;28;20492;-87
2021/01/27 06:14:09;;;;;;;23.73;12.75;;;2.20;80.50;;;;;;5068716;28;20035;-86
2021/01/27 06:16:43;;;;;;;24.27;12.77;;;2.30;80.50;;;;;;5065855;28;20032;-88
2021/01/27 06:19:13;;;;;;;23.67;13.18;;;2.30;80.50;;;;;;5068428;28;20035;-87
2021/01/27 06:21:50;;;;;;;25.38;12.65;;;2.30;80.40;;;;;;5076251;28;20024;-87
2021/01/27 06:24:23;;;;;;;22.50;12.38;;;2.40;80.60;;;;;;5096155;28;20033;-81
2021/01/27 06:27:01;;;;;;;22.23;12.05;;;2.40;80.30;;;;;;5094883;28;20097;-78
2021/01/27 06:29:37;;;;;;;20.27;11.85;;;2.40;80.30;;;;;;5091780;28;20020;-78
2021/01/27 06:32:31;;;;;;;28.42;13.77;;;2.40;80.20;;;;;;5085387;28;20082;-76
2021/01/27 06:35:19;;;;;;;25.85;13.02;;;2.40;80.20;;;;;;5070275;28;20032;-81
2021/01/27 06:38:10;;;;;;;27.52;12.60;;;2.40;80.20;;;;;;5043996;28;20044;-81
2021/01/27 06:40:51;;;;;;;23.13;12.55;;;2.50;80.20;;;;;;5090860;28;20023;-81
2021/01/27 06:43:29;;;;;;;22.88;11.90;;;2.50;80.30;;;;;;5083975;28;20058;-78
2021/01/27 06:46:13;;;;;;;24.98;12.02;;;2.60;80.20;;;;;;5073200;28;20035;-82
2021/01/27 06:48:51;;;;;;;22.50;11.45;;;2.60;80.10;;;;;;5076002;28;20063;-79
2021/01/27 06:51:44;;;;;;;19.98;11.18;;;2.60;79.80;;;;;;5087417;28;20036;-79
2021/01/27 06:54:29;;;;;;;22.60;10.98;;;2.60;79.80;;;;;;5074193;28;20127;-81
2021/01/27 06:57:06;;;;;;;21.23;11.07;;;2.60;79.70;;;;;;5067591;28;20077;-78
2021/01/27 07:00:09;;;;;;;19.40;11.02;;;2.60;79.80;;;;;;5092999;28;20027;-78
2021/01/27 07:02:53;;;;;;;19.83;10.77;;;2.60;79.70;;;;;;5080210;28;20036;-75
2021/01/27 07:05:38;;;;;;;18.80;11.35;;;2.60;79.50;;;;;;5080541;28;20039;-78
2021/01/27 07:08:28;;;;;;;22.77;10.80;;;2.50;79.60;;;;;;5058454;28;20035;-78
2021/01/27 07:11:07;;;;;;;23.42;12.15;;;2.50;79.70;;;;;;5091331;28;20478;-70
2021/01/27 07:13:54;;;;;;;19.23;11.18;;;2.50;80.10;;;;;;5078307;28;20505;-80
2021/01/27 07:16:59;;;;;;;22.08;10.90;;;2.50;80.00;;;;;;5065488;28;20040;-73
2021/01/27 07:19:45;;;;;;;25.95;11.68;;;2.50;80.10;;;;;;5063450;28;20444;-76
2021/01/27 07:22:21;;;;;;;19.35;11.80;;;2.50;80.00;;;;;;5076486;28;20397;-75
2021/01/27 07:25:11;;;;;;;23.00;12.48;;;2.50;80.20;;;;;;5070176;28;20505;-79
2021/01/27 07:28:06;;;;;;;26.02;12.90;;;2.40;80.40;;;;;;5069312;28;20442;-83
2021/01/27 07:30:38;;;;;;;25.15;12.10;;;2.50;80.70;;;;;;5088418;28;20626;-82
2021/01/27 07:33:10;;;;;;;23.20;12.13;;;2.50;80.50;;;;;;5084752;28;20023;-82
2021/01/27 07:35:41;;;;;;;23.67;12.90;;;2.50;80.70;;;;;;5074514;28;20118;-83
2021/01/27 07:38:16;;;;;;;24.85;13.02;;;2.50;80.80;;;;;;5071569;28;20035;-76
2021/01/27 07:41:14;;;;;;;22.13;12.65;;;2.50;81.00;;;;;;5084925;28;20032;-83
2021/01/27 07:43:52;;;;;;;22.40;12.15;;;2.60;81.10;;;;;;5066475;28;20118;-79
2021/01/27 07:46:46;;;;;;;21.38;11.63;;;2.60;81.20;;;;;;5090054;28;20378;-81
2021/01/27 07:49:15;;;;;;;22.98;12.25;;;2.60;81.20;;;;;;5092019;28;20063;-82
2021/01/27 07:52:02;;;;;;;20.02;11.40;;;2.60;80.90;;;;;;5074276;28;20093;-81
2021/01/27 07:54:40;;;;;;;22.58;12.65;;;2.60;81.20;;;;;;5062151;28;20032;-82
2021/01/27 07:57:35;;;;;;;23.70;13.75;;;2.60;81.40;;;;;;5075188;28;20085;-83
2021/01/27 08:00:10;;;;;;;22.05;12.70;;;2.70;81.60;;;;;;5080060;28;20020;-81
2021/01/27 08:02:53;;;;;;;24.88;12.68;;;2.70;81.50;;;;;;5074920;28;20047;-82
2021/01/27 08:05:19;;;;;;;24.20;13.43;;;2.80;81.80;;;;;;5092463;28;20028;-83
2021/01/27 08:07:58;;;;;;;23.65;13.38;;;2.80;81.40;;;;;;5092785;28;20029;-82
2021/01/27 08:10:30;;;;;;;23.48;13.40;;;2.70;81.40;;;;;;5093078;28;20024;-82
2021/01/27 08:13:08;;;;;;;24.50;14.20;;;2.80;81.40;;;;;;5077537;28;20114;-81
2021/01/27 08:15:59;;;;;;;26.98;14.10;;;2.80;81.60;;;;;;5078359;28;20394;-81
2021/01/27 08:18:25;;;;;;;27.45;14.18;;;2.80;81.70;;;;;;5078515;28;20050;-81
2021/01/27 08:21:28;;;;;;;31.60;16.05;;;2.90;81.70;;;;;;5078457;28;20047;-81
2021/01/27 08:23:55;;;;;;;28.30;13.98;;;2.90;81.80;;;;;;5096338;28;20415;-82
2021/01/27 08:26:43;;;;;;;27.85;14.50;;;2.90;81.70;;;;;;5078647;28;20354;-82
2021/01/27 08:29:11;;;;;;;28.55;15.13;;;2.90;81.40;;;;;;5096710;28;20021;-82
2021/01/27 08:31:37;;;;;;;26.75;14.15;;;2.90;81.30;;;;;;5079532;28;20020;-81
2021/01/27 08:34:03;;;;;;;27.60;13.98;;;2.90;81.40;;;;;;5079161;28;20024;-81
2021/01/27 08:36:28;;;;;;;22.95;12.90;;;2.80;81.30;;;;;;5096225;28;20020;-82
2021/01/27 08:38:57;;;;;;;22.83;12.43;;;2.80;81.40;;;;;;5077991;28;20036;-82
2021/01/27 08:42:03;;;;;;;28.63;14.00;;;2.80;81.70;;;;;;5096411;28;20099;-82
2021/01/27 08:44:40;;;;;;;27.83;14.52;;;2.90;81.80;;;;;;5047730;28;20036;-82
2021/01/27 08:47:41;;;;;;;25.55;13.65;;;2.90;82.00;;;;;;5078321;28;20371;-82
2021/01/27 08:50:40;;;;;;;28.05;15.13;;;2.90;81.80;;;;;;5043969;28;20028;-80
2021/01/27 08:53:17;;;;;;;32.47;15.23;;;2.90;81.60;;;;;;5082243;28;20076;-81
2021/01/27 08:55:46;;;;;;;30.33;15.20;;;2.90;81.60;;;;;;5077624;28;20554;-74
2021/01/27 08:58:29;;;;;;;29.38;15.70;;;2.90;81.70;;;;;;5077656;28;20047;-81
2021/01/27 09:01:04;;;;;;;28.17;15.20;;;2.80;81.70;;;;;;5077651;28;20454;-80
2021/01/27 09:03:42;;;;;;;29.38;15.40;;;2.90;82.00;;;;;;5077429;28;20021;-81
2021/01/27 09:06:27;;;;;;;29.90;15.07;;;2.90;82.30;;;;;;5095800;28;20028;-80
2021/01/27 09:09:07;;;;;;;28.85;15.95;;;2.90;82.60;;;;;;5060772;28;20044;-80
2021/01/27 09:11:33;;;;;;;28.88;15.70;;;2.90;82.60;;;;;;5090050;28;20117;-80
2021/01/27 09:14:04;;;;;;;36.72;15.98;;;3.00;82.90;;;;;;5077122;28;20035;-81
2021/01/27 09:16:31;;;;;;;28.05;15.13;;;3.10;83.10;;;;;;5077545;28;20050;-81
2021/01/27 09:18:59;;;;;;;24.25;12.85;;;3.10;82.90;;;;;;5076961;28;20032;-81
2021/01/27 09:21:26;;;;;;;26.80;13.73;;;3.10;82.30;;;;;;5077010;28;20035;-81
2021/01/27 09:24:05;;;;;;;26.80;13.18;;;3.10;82.40;;;;;;5075795;28;20489;-80
2021/01/27 09:26:50;;;;;;;25.50;13.48;;;3.10;82.70;;;;;;5095545;28;20420;-81
2021/01/27 09:29:24;;;;;;;29.20;14.55;;;3.10;82.20;;;;;;5063186;28;20027;-81
2021/01/27 09:31:50;;;;;;;28.80;14.32;;;3.00;82.20;;;;;;5094805;28;20028;-79
2021/01/27 09:34:29;;;;;;;30.40;15.63;;;2.90;82.10;;;;;;5077020;28;20024;-81
2021/01/27 09:37:01;;;;;;;28.60;14.48;;;2.90;82.30;;;;;;5077350;28;20473;-81
2021/01/27 09:39:30;;;;;;;23.13;12.50;;;2.80;82.50;;;;;;5076473;28;20028;-81
2021/01/27 09:41:58;;;;;;;28.48;15.82;;;2.80;82.30;;;;;;5070323;28;20028;-82
2021/01/27 09:44:33;;;;;;;26.85;13.93;;;2.70;82.60;;;;;;5076985;28;20107;-82
2021/01/27 09:47:07;;;;;;;25.67;13.70;;;2.70;83.00;;;;;;5095310;28;20048;-82
2021/01/27 09:49:39;;;;;;;27.98;13.90;;;2.70;83.40;;;;;;5077035;28;20465;-82
2021/01/27 09:52:07;;;;;;;30.38;15.20;;;2.60;83.10;;;;;;5076557;28;20043;-83
2021/01/27 09:54:34;;;;;;;27.02;14.07;;;2.60;83.30;;;;;;5076317;28;20114;-83
2021/01/27 09:57:02;;;;;;;27.42;14.93;;;2.60;83.30;;;;;;5094918;28;20039;-82
2021/01/27 09:59:29;;;;;;;31.33;16.20;;;2.60;83.30;;;;;;5094613;28;20028;-82
2021/01/27 10:01:54;;;;;;;26.75;14.98;;;2.60;83.60;;;;;;5094641;28;20030;-82
2021/01/27 10:04:49;;;;;;;27.75;15.10;;;2.70;83.90;;;;;;5094739;28;20028;-82
2021/01/27 10:07:25;;;;;;;31.55;15.85;;;2.70;84.10;;;;;;5068185;28;20037;-83
2021/01/27 10:09:51;;;;;;;;;;;2.70;84.10;;;;;;5090548;28;20031;-81
2021/01/27 10:12:23;;;;;;;26.25;14.55;;;2.80;84.00;;;;;;5094721;28;19904;-82
2021/01/27 10:14:56;;;;;;;29.90;15.10;;;2.70;83.90;;;;;;5094771;28;20036;-82
2021/01/27 10:17:27;;;;;;;26.35;14.73;;;2.70;84.10;;;;;;5080531;28;20030;-82
2021/01/27 10:20:06;;;;;;;32.47;16.17;;;2.70;84.60;;;;;;5093947;28;20081;-81
2021/01/27 10:22:37;;;;;;;34.78;17.25;;;2.80;85.00;;;;;;5063749;28;20381;-82
2021/01/27 10:25:39;;;;;;;30.35;16.10;;;2.80;84.90;;;;;;5094174;28;20470;-82
2021/01/27 10:28:20;;;;;;;32.83;16.52;;;2.90;84.60;;;;;;5084222;28;20542;-82
2021/01/27 10:30:50;;;;;;;30.23;16.35;;;2.90;85.00;;;;;;5075803;28;20354;-82
2021/01/27 10:33:48;;;;;;;29.17;15.40;;;2.90;84.80;;;;;;5076141;28;20028;-82
2021/01/27 10:36:29;;;;;;;27.40;13.68;;;2.90;84.60;;;;;;5075257;28;20024;-81
2021/01/27 10:39:22;;;;;;;26.17;14.07;;;2.90;84.50;;;;;;5075872;28;20021;-80
2021/01/27 10:41:54;;;;;;;26.25;14.60;;;2.90;84.30;;;;;;5076051;28;20024;-81
2021/01/27 10:44:26;;;;;;;26.98;14.18;;;2.80;84.20;;;;;;5075485;28;20020;-81
2021/01/27 10:46:54;;;;;;;27.13;13.85;;;2.70;84.20;;;;;;5093801;28;20044;-81
2021/01/27 10:49:20;;;;;;;24.98;13.90;;;2.70;84.60;;;;;;5094075;28;20028;-81
2021/01/27 10:51:46;;;;;;;23.33;12.68;;;2.70;85.10;;;;;;5093953;28;20047;-82
2021/01/27 10:54:15;;;;;;;26.00;13.68;;;2.70;84.70;;;;;;5075581;28;20043;-81
2021/01/27 10:56:41;;;;;;;25.13;12.18;;;2.70;84.60;;;;;;5094133;28;20027;-82
2021/01/27 10:59:07;;;;;;;23.38;12.88;;;2.60;85.00;;;;;;5093478;28;20020;-78
2021/01/27 11:01:33;;;;;;;20.58;11.57;;;2.60;85.50;;;;;;5075250;28;20034;-82
2021/01/27 11:03:59;;;;;;;23.27;12.32;;;2.70;85.50;;;;;;5093132;28;20031;-80
2021/01/27 11:06:25;;;;;;;23.58;12.98;;;2.70;85.40;;;;;;5075359;28;20028;-79
2021/01/27 11:08:51;;;;;;;27.88;14.35;;;2.60;85.10;;;;;;5093848;28;20371;-80
2021/01/27 11:11:18;;;;;;;23.77;12.10;;;2.60;85.20;;;;;;5093366;28;20039;-80
2021/01/27 11:13:43;;;;;;;24.25;12.30;;;2.60;85.40;;;;;;5093166;28;20016;-81
2021/01/27 11:16:10;;;;;;;27.60;13.75;;;2.60;85.80;;;;;;5092975;28;20119;-80
2021/01/27 11:18:36;;;;;;;25.60;13.13;;;2.60;86.00;;;;;;5075107;28;20032;-80
2021/01/27 11:21:03;;;;;;;34.15;16.80;;;2.70;86.10;;;;;;5093542;28;20050;-80
2021/01/27 11:23:29;;;;;;;34.78;16.30;;;2.70;86.10;;;;;;5075249;28;20077;-80
2021/01/27 11:25:55;;;;;;;30.05;15.75;;;2.70;86.20;;;;;;5075308;28;20027;-81
2021/01/27 11:28:22;;;;;;;26.50;13.27;;;2.70;86.30;;;;;;5093342;28;20035;-79
2021/01/27 11:30:49;;;;;;;22.35;12.25;;;2.70;86.00;;;;;;5093251;28;20031;-81
2021/01/27 11:33:18;;;;;;;23.92;12.23;;;2.60;85.40;;;;;;5075208;28;20477;-81
2021/01/27 11:35:44;;;;;;;22.67;12.45;;;2.60;85.60;;;;;;5074469;28;20123;-81
2021/01/27 11:38:10;;;;;;;24.65;12.45;;;2.50;85.60;;;;;;5092853;28;20158;-80
2021/01/27 11:40:36;;;;;;;25.90;13.40;;;2.50;85.80;;;;;;5092935;28;20028;-81
2021/01/27 11:43:02;;;;;;;31.58;14.57;;;2.50;86.00;;;;;;5093232;28;20032;-79
2021/01/27 11:45:28;;;;;;;27.20;13.80;;;2.40;86.10;;;;;;5093179;28;20369;-81
2021/01/27 11:47:55;;;;;;;22.83;13.13;;;2.40;86.40;;;;;;5077193;28;20131;-81
2021/01/27 11:50:25;;;;;;;26.10;14.48;;;2.40;86.90;;;;;;5097540;28;20023;-81
2021/01/27 11:52:51;;;;;;;30.23;14.88;;;2.50;87.20;;;;;;5097127;28;20046;-81
2021/01/27 11:55:18;;;;;;;24.48;12.73;;;2.50;87.10;;;;;;5097101;28;20033;-81
2021/01/27 11:57:45;;;;;;;24.05;13.00;;;2.50;87.20;;;;;;5096765;28;20115;-82
2021/01/27 12:00:13;;;;;;;27.73;13.27;;;2.60;87.50;;;;;;5078679;28;20107;-82
2021/01/27 12:02:38;;;;;;;23.63;12.38;;;2.60;87.60;;;;;;5078455;28;20024;-82
2021/01/27 12:05:07;;;;;;;21.42;12.40;;;2.60;87.50;;;;;;5078785;28;20024;-82
2021/01/27 12:07:32;;;;;;;21.10;11.82;;;2.70;87.50;;;;;;5078990;28;20036;-82
2021/01/27 12:09:58;;;;;;;22.52;12.18;;;2.70;87.30;;;;;;5078343;28;20436;-81
2021/01/27 12:12:24;;;;;;;23.23;12.88;;;2.60;86.90;;;;;;5096891;28;20019;-82
2021/01/27 12:14:50;;;;;;;25.60;13.90;;;2.60;86.90;;;;;;5078723;28;20454;-81
2021/01/27 12:17:15;;;;;;;32.17;14.25;;;2.60;86.90;;;;;;5078348;28;20047;-81
2021/01/27 12:19:41;;;;;;;28.33;14.38;;;2.50;87.00;;;;;;5097950;28;20047;-81
2021/01/27 12:22:07;;;;;;;26.02;13.85;;;2.50;87.30;;;;;;5078529;28;20020;-80
2021/01/27 12:24:32;;;;;;;25.58;13.18;;;2.50;87.60;;;;;;5096776;28;20024;-81
2021/01/27 12:26:58;;;;;;;27.98;14.27;;;2.60;87.50;;;;;;5096137;28;20030;-80
2021/01/27 12:29:24;;;;;;;26.42;14.25;;;2.60;87.60;;;;;;5096841;28;20020;-82
2021/01/27 12:31:51;;;;;;;25.17;12.82;;;2.50;87.30;;;;;;5096519;28;20063;-80
2021/01/27 12:34:19;;;;;;;25.65;12.80;;;2.40;87.10;;;;;;5096527;28;20028;-82
2021/01/27 12:36:47;;;;;;;22.98;12.75;;;2.40;87.20;;;;;;5078249;28;20057;-82
2021/01/27 12:39:13;;;;;;;25.48;13.73;;;2.30;87.60;;;;;;5096148;28;20078;-80
2021/01/27 12:41:39;;;;;;;28.15;12.85;;;2.40;87.80;;;;;;5096364;28;20024;-81
2021/01/27 12:44:05;;;;;;;22.15;12.10;;;2.40;87.80;;;;;;5096224;28;20031;-81
2021/01/27 12:46:31;;;;;;;25.90;14.70;;;2.30;87.90;;;;;;5096457;28;20034;-81
2021/01/27 12:48:57;;;;;;;26.13;13.20;;;2.30;88.00;;;;;;5096396;28;20028;-81
2021/01/27 12:51:22;;;;;;;22.27;12.60;;;2.30;87.90;;;;;;5096144;28;20116;-82
2021/01/27 12:53:49;;;;;;;23.40;12.02;;;2.30;87.90;;;;;;5096131;28;20095;-81
2021/01/27 12:56:15;;;;;;;22.75;12.27;;;2.20;87.80;;;;;;5095683;28;20374;-82
2021/01/27 12:58:41;;;;;;;21.77;11.40;;;2.10;88.10;;;;;;5095765;28;20027;-82
2021/01/27 13:01:07;;;;;;;23.88;11.77;;;2.20;88.50;;;;;;5095783;28;20035;-82
2021/01/27 13:03:33;;;;;;;22.52;11.32;;;2.10;88.60;;;;;;5077465;28;20020;-82
2021/01/27 13:05:58;;;;;;;20.92;10.88;;;2.10;88.60;;;;;;5077390;28;20059;-82
2021/01/27 13:08:24;;;;;;;20.42;10.35;;;2.10;88.90;;;;;;5077276;28;20035;-82